Time;durP1;ratioP1;P1;durP2;ratioP2;P2;SDS_P1;SDS_P2;PMS_P1;PMS_P2;Temp;Humidity;BMP_temperature;BMP_pressure;BME280_temperature;BME280_humidity;BME280_pressure;Samples;Min_cycle;Max_cycle;Signal;HPM_P1;HPM_P2
2021/11/29 00:00:42;;;;;;;18.03;9.80;;;4.20;99.90;;;;;;5049800;28;20223;-73
2021/11/29 00:03:24;;;;;;;20.60;9.37;;;4.20;99.90;;;;;;5019015;28;20434;-73
2021/11/29 00:05:50;;;;;;;14.77;7.90;;;4.10;99.90;;;;;;5049484;28;20457;-73
2021/11/29 00:08:16;;;;;;;12.77;6.70;;;4.10;99.90;;;;;;5032477;28;20458;-73
2021/11/29 00:10:41;;;;;;;13.63;7.43;;;4.10;99.90;;;;;;5034766;28;20318;-73
2021/11/29 00:13:07;;;;;;;12.43;6.60;;;4.10;99.90;;;;;;5050378;28;20214;-72
2021/11/29 00:15:33;;;;;;;13.90;6.73;;;4.10;99.90;;;;;;5032353;28;20216;-73
2021/11/29 00:18:01;;;;;;;10.33;5.83;;;4.10;99.90;;;;;;5033268;28;20457;-73
2021/11/29 00:20:27;;;;;;;8.40;5.70;;;4.10;99.90;;;;;;5046449;28;20641;-72
2021/11/29 00:22:53;;;;;;;9.83;5.93;;;4.00;99.90;;;;;;5049770;28;20455;-72
2021/11/29 00:25:19;;;;;;;8.60;5.57;;;4.00;99.90;;;;;;5032039;28;20220;-72
2021/11/29 00:27:44;;;;;;;16.20;7.00;;;4.00;99.90;;;;;;5049535;28;20212;-72
2021/11/29 00:30:15;;;;;;;9.73;6.20;;;4.00;99.90;;;;;;5016102;28;20446;-71
2021/11/29 00:32:41;;;;;;;14.40;7.80;;;4.00;99.90;;;;;;5022411;28;20204;-72
2021/11/29 00:35:09;;;;;;;14.27;7.57;;;3.90;99.90;;;;;;5048398;28;20450;-72
2021/11/29 00:37:35;;;;;;;14.27;7.10;;;4.00;99.90;;;;;;5032639;28;20442;-72
2021/11/29 00:40:01;;;;;;;11.90;7.40;;;4.00;99.90;;;;;;5029633;28;20626;-72
2021/11/29 00:42:26;;;;;;;15.40;8.33;;;3.90;99.90;;;;;;5021146;28;20467;-72
2021/11/29 00:44:52;;;;;;;21.20;9.60;;;3.90;99.90;;;;;;5030132;28;20208;-72
2021/11/29 00:47:18;;;;;;;20.53;8.10;;;3.90;99.90;;;;;;5032265;28;20223;-72
2021/11/29 00:49:44;;;;;;;17.60;8.60;;;3.90;99.90;;;;;;5050532;28;20218;-72
2021/11/29 00:52:12;;;;;;;16.80;8.63;;;3.90;99.90;;;;;;5030852;28;20661;-72
2021/11/29 00:54:38;;;;;;;14.73;7.23;;;3.90;99.90;;;;;;5049179;28;20446;-70
2021/11/29 00:57:04;;;;;;;18.07;8.70;;;3.90;99.90;;;;;;5048788;28;20492;-71
2021/11/29 00:59:30;;;;;;;17.47;8.87;;;3.90;99.90;;;;;;5048909;28;20632;-72
2021/11/29 01:01:56;;;;;;;12.03;6.97;;;4.00;99.90;;;;;;5049116;28;20461;-71
2021/11/29 01:04:21;;;;;;;15.90;7.70;;;4.00;99.90;;;;;;5048177;28;20611;-72
2021/11/29 01:06:47;;;;;;;19.23;8.27;;;3.90;99.90;;;;;;5047586;28;20246;-70
2021/11/29 01:09:13;;;;;;;16.27;8.30;;;3.90;99.90;;;;;;5030422;28;20220;-72
2021/11/29 01:11:39;;;;;;;11.30;6.67;;;3.90;99.90;;;;;;5050273;28;20224;-72
2021/11/29 01:14:05;;;;;;;12.57;7.50;;;3.90;99.90;;;;;;5047657;28;20216;-72
2021/11/29 01:16:31;;;;;;;10.90;6.13;;;3.90;99.90;;;;;;5048385;28;20450;-72
2021/11/29 01:18:56;;;;;;;14.13;7.40;;;4.00;99.90;;;;;;5045004;28;20250;-72
2021/11/29 01:21:22;;;;;;;9.97;6.47;;;4.00;99.90;;;;;;5047714;28;20455;-72
2021/11/29 01:23:48;;;;;;;9.23;5.63;;;4.00;99.90;;;;;;5048609;28;20212;-72
2021/11/29 01:26:14;;;;;;;14.47;7.50;;;3.90;99.90;;;;;;5027276;28;20294;-72
2021/11/29 01:28:40;;;;;;;11.33;6.20;;;4.00;99.90;;;;;;5032207;28;20295;-72
2021/11/29 01:31:06;;;;;;;10.73;6.47;;;3.90;99.90;;;;;;5049029;28;20235;-71
2021/11/29 01:33:32;;;;;;;10.00;6.60;;;3.90;99.90;;;;;;5048269;28;20481;-72
2021/11/29 01:35:58;;;;;;;7.00;4.70;;;3.90;99.90;;;;;;5048353;28;20447;-72
2021/11/29 01:38:24;;;;;;;11.10;5.63;;;3.90;99.90;;;;;;5031472;28;20216;-72
2021/11/29 01:40:49;;;;;;;9.40;5.77;;;3.90;99.90;;;;;;5047993;28;20219;-72
2021/11/29 01:43:18;;;;;;;7.80;5.13;;;3.90;99.90;;;;;;5029467;28;20700;-71
2021/11/29 01:45:50;;;;;;;8.33;5.77;;;3.90;99.90;;;;;;5031753;28;20296;-72
2021/11/29 01:48:16;;;;;;;13.60;5.17;;;3.80;99.90;;;;;;5047817;28;20973;-72
2021/11/29 01:50:49;;;;;;;10.27;5.40;;;3.80;99.90;;;;;;5048172;28;20470;-72
2021/11/29 01:53:16;;;;;;;8.67;4.77;;;3.80;99.90;;;;;;5047918;28;20570;-71
2021/11/29 01:55:44;;;;;;;10.57;5.40;;;3.80;99.90;;;;;;5049071;28;20536;-72
2021/11/29 01:58:10;;;;;;;11.97;5.60;;;3.80;99.90;;;;;;5046761;28;20503;-72
2021/11/29 02:00:38;;;;;;;14.80;5.40;;;3.70;99.90;;;;;;5048361;28;20501;-71
2021/11/29 02:03:04;;;;;;;10.40;4.90;;;3.70;99.90;;;;;;5046794;28;20458;-72
2021/11/29 02:05:30;;;;;;;8.57;4.83;;;3.70;99.90;;;;;;5052880;28;20462;-72
2021/11/29 02:07:57;;;;;;;12.03;5.80;;;3.70;99.90;;;;;;5034946;28;20472;-72
2021/11/29 02:10:24;;;;;;;8.70;5.33;;;3.70;99.90;;;;;;5050980;28;20235;-72
2021/11/29 02:12:51;;;;;;;13.20;5.40;;;3.60;99.90;;;;;;5035632;28;20452;-72
2021/11/29 02:15:20;;;;;;;9.43;5.50;;;3.60;99.90;;;;;;5051154;28;20442;-71
2021/11/29 02:17:46;;;;;;;11.00;4.60;;;3.60;99.90;;;;;;5048035;28;20534;-72
2021/11/29 02:20:14;;;;;;;8.63;4.90;;;3.50;99.90;;;;;;5051298;28;20616;-71
2021/11/29 02:22:40;;;;;;;9.40;5.20;;;3.50;99.90;;;;;;5053151;28;20231;-72
2021/11/29 02:25:06;;;;;;;7.30;3.67;;;3.50;99.90;;;;;;5034271;28;20450;-72
2021/11/29 02:27:32;;;;;;;8.57;4.67;;;3.50;99.90;;;;;;5051780;28;20700;-72
2021/11/29 02:30:01;;;;;;;7.87;5.37;;;3.50;99.90;;;;;;5035433;28;20442;-72
2021/11/29 02:32:27;;;;;;;10.40;5.40;;;3.60;99.90;;;;;;5049149;28;20445;-71
2021/11/29 02:34:53;;;;;;;9.37;4.57;;;3.50;99.90;;;;;;5052208;28;20467;-71
2021/11/29 02:37:18;;;;;;;8.87;5.23;;;3.50;99.90;;;;;;5033489;28;20220;-71
2021/11/29 02:39:44;;;;;;;8.60;4.07;;;3.50;99.90;;;;;;5052790;28;20300;-72
2021/11/29 02:42:12;;;;;;;9.63;4.87;;;3.50;99.90;;;;;;5034596;28;20204;-71
2021/11/29 02:44:40;;;;;;;6.83;4.57;;;3.50;99.90;;;;;;5051453;28;20235;-72
2021/11/29 02:47:07;;;;;;;6.40;4.37;;;3.50;99.90;;;;;;5031140;28;20439;-71
2021/11/29 02:49:33;;;;;;;11.83;5.00;;;3.50;99.90;;;;;;5052548;28;20526;-72
2021/11/29 02:52:20;;;;;;;7.57;4.20;;;3.50;99.90;;;;;;5052939;28;20461;-71
2021/11/29 02:54:48;;;;;;;8.70;4.30;;;3.50;99.90;;;;;;5052335;28;20481;-70
2021/11/29 02:57:20;;;;;;;5.77;4.07;;;3.50;99.90;;;;;;5051850;28;20446;-71
2021/11/29 02:59:46;;;;;;;6.57;3.53;;;3.50;99.90;;;;;;5051473;28;20508;-72
2021/11/29 03:02:18;;;;;;;16.53;3.97;;;3.50;99.90;;;;;;5034056;28;20786;-71
2021/11/29 03:04:48;;;;;;;8.70;3.87;;;3.50;99.90;;;;;;5046961;28;20455;-69
2021/11/29 03:07:14;;;;;;;9.30;4.80;;;3.50;99.90;;;;;;5050692;28;20450;-72
2021/11/29 03:09:41;;;;;;;10.50;5.27;;;3.50;99.90;;;;;;5034517;28;20485;-72
2021/11/29 03:12:07;;;;;;;7.00;4.60;;;3.60;99.90;;;;;;5050388;28;20938;-71
2021/11/29 03:14:33;;;;;;;11.80;5.63;;;3.50;99.90;;;;;;5050331;28;20515;-72
2021/11/29 03:16:59;;;;;;;8.53;5.03;;;3.50;99.90;;;;;;5050961;28;20442;-72
2021/11/29 03:19:30;;;;;;;8.50;4.07;;;3.40;99.90;;;;;;5052877;28;20455;-72
2021/11/29 03:21:56;;;;;;;8.47;4.87;;;3.50;99.90;;;;;;5048143;28;20681;-70
2021/11/29 03:24:22;;;;;;;7.97;4.67;;;3.50;99.90;;;;;;5050165;28;20569;-72
2021/11/29 03:26:47;;;;;;;6.67;3.90;;;3.40;99.90;;;;;;5050739;28;20660;-69
2021/11/29 03:29:16;;;;;;;7.50;4.47;;;3.40;99.90;;;;;;5033919;28;20245;-71
2021/11/29 03:31:43;;;;;;;10.23;4.90;;;3.40;99.90;;;;;;5051960;28;20223;-71
2021/11/29 03:34:11;;;;;;;6.13;4.00;;;3.50;99.90;;;;;;5049919;28;20465;-71
2021/11/29 03:36:40;;;;;;;10.17;5.37;;;3.40;99.90;;;;;;5050341;28;20499;-70
2021/11/29 03:39:10;;;;;;;7.73;3.73;;;3.40;99.90;;;;;;5050013;28;20442;-71
2021/11/29 03:41:37;;;;;;;6.80;4.33;;;3.30;99.90;;;;;;5050905;28;20950;-71
2021/11/29 03:44:04;;;;;;;7.10;3.23;;;3.30;99.90;;;;;;5050143;28;20454;-72
2021/11/29 03:46:30;;;;;;;5.80;3.97;;;3.30;99.90;;;;;;5050287;28;20451;-71
2021/11/29 03:48:56;;;;;;;5.13;3.80;;;3.30;99.90;;;;;;5033960;28;20458;-72
2021/11/29 03:51:22;;;;;;;5.70;4.00;;;3.30;99.90;;;;;;5049782;28;20450;-71
2021/11/29 03:53:48;;;;;;;5.73;4.20;;;3.30;99.90;;;;;;5050412;28;20453;-71
2021/11/29 03:56:13;;;;;;;5.70;4.20;;;3.30;99.90;;;;;;5048991;28;20579;-71
2021/11/29 03:58:39;;;;;;;6.33;4.37;;;3.30;99.90;;;;;;5051592;28;20273;-72
2021/11/29 04:01:05;;;;;;;6.60;3.60;;;3.30;99.90;;;;;;5050238;28;20231;-72
2021/11/29 04:03:32;;;;;;;10.33;3.53;;;3.30;99.90;;;;;;5049362;28;20223;-70
2021/11/29 04:05:58;;;;;;;6.07;3.60;;;3.30;99.90;;;;;;5049203;28;20299;-72
2021/11/29 04:08:24;;;;;;;6.97;3.53;;;3.30;99.90;;;;;;5032926;28;20446;-72
2021/11/29 04:10:51;;;;;;;5.73;3.77;;;3.30;99.90;;;;;;5048725;28;20464;-72
2021/11/29 04:13:16;;;;;;;5.67;3.80;;;3.30;99.90;;;;;;5045287;28;20533;-71
2021/11/29 04:15:42;;;;;;;6.53;3.80;;;3.30;99.90;;;;;;5032357;28;20541;-72
2021/11/29 04:18:08;;;;;;;5.23;3.07;;;3.20;99.90;;;;;;5049448;28;20711;-71
2021/11/29 04:20:34;;;;;;;7.90;4.53;;;3.30;99.90;;;;;;5052458;28;20231;-71
2021/11/29 04:23:00;;;;;;;7.57;4.20;;;3.30;99.90;;;;;;5033098;28;20265;-71
2021/11/29 04:25:28;;;;;;;6.70;3.60;;;3.30;99.90;;;;;;5032003;28;20683;-71
2021/11/29 04:27:56;;;;;;;5.60;4.13;;;3.30;99.90;;;;;;5027518;28;20455;-71
2021/11/29 04:30:26;;;;;;;8.63;4.70;;;3.30;99.90;;;;;;5049410;28;20449;-72
2021/11/29 04:32:54;;;;;;;8.87;3.80;;;3.30;99.90;;;;;;5049254;28;20447;-71
2021/11/29 04:35:20;;;;;;;9.60;4.00;;;3.30;99.90;;;;;;5032270;28;20462;-72
2021/11/29 04:37:46;;;;;;;6.00;4.30;;;3.30;99.90;;;;;;5033053;28;20442;-71
2021/11/29 04:40:12;;;;;;;10.00;4.57;;;3.30;99.90;;;;;;5032465;28;20545;-71
2021/11/29 04:42:38;;;;;;;7.83;4.30;;;3.20;99.90;;;;;;5050665;28;20203;-71
2021/11/29 04:45:05;;;;;;;8.97;4.83;;;3.30;99.90;;;;;;5049960;28;20806;-70
2021/11/29 04:47:31;;;;;;;4.90;3.70;;;3.20;99.90;;;;;;5049397;28;20235;-71
2021/11/29 04:49:57;;;;;;;12.70;4.10;;;3.30;99.90;;;;;;5029715;28;20451;-71
2021/11/29 04:52:23;;;;;;;13.80;4.83;;;3.30;99.90;;;;;;5048125;28;20446;-71
2021/11/29 04:54:49;;;;;;;6.57;4.50;;;3.30;99.90;;;;;;5027981;28;20219;-70
2021/11/29 04:57:14;;;;;;;6.47;4.33;;;3.30;99.90;;;;;;5024540;28;20676;-71
2021/11/29 04:59:40;;;;;;;6.47;4.40;;;3.30;99.90;;;;;;5032909;28;20551;-72
2021/11/29 05:02:06;;;;;;;5.80;4.33;;;3.30;99.90;;;;;;5048405;28;20251;-72
2021/11/29 05:04:32;;;;;;;8.27;5.80;;;3.30;99.90;;;;;;5049723;28;20303;-71
2021/11/29 05:06:58;;;;;;;11.83;5.23;;;3.20;99.90;;;;;;5048967;28;20261;-71
2021/11/29 05:09:23;;;;;;;10.27;5.73;;;3.20;99.90;;;;;;5048517;28;20894;-71
2021/11/29 05:11:49;;;;;;;8.57;5.07;;;3.20;99.90;;;;;;5049255;28;20218;-71
2021/11/29 05:14:16;;;;;;;6.23;5.63;;;3.20;99.90;;;;;;5048264;28;20215;-71
2021/11/29 05:16:43;;;;;;;12.27;5.10;;;3.20;99.90;;;;;;5050217;28;20788;-71
2021/11/29 05:19:09;;;;;;;8.50;5.23;;;3.20;99.90;;;;;;5048304;28;20458;-71
2021/11/29 05:21:35;;;;;;;10.60;6.70;;;3.20;99.90;;;;;;5028688;28;20496;-72
2021/11/29 05:24:02;;;;;;;8.30;5.90;;;3.20;99.90;;;;;;5031276;28;20470;-71
2021/11/29 05:26:28;;;;;;;11.27;5.80;;;3.20;99.90;;;;;;5053793;28;20664;-71
2021/11/29 05:28:56;;;;;;;10.23;5.30;;;3.20;99.90;;;;;;5049970;28;20549;-70
2021/11/29 05:31:24;;;;;;;11.70;6.70;;;3.20;99.90;;;;;;5031458;28;20458;-71
2021/11/29 05:33:50;;;;;;;12.40;6.77;;;3.30;99.90;;;;;;5049456;28;20442;-71
2021/11/29 05:36:17;;;;;;;14.23;8.17;;;3.30;99.90;;;;;;5031907;28;20470;-72
2021/11/29 05:38:43;;;;;;;12.30;7.83;;;3.20;99.90;;;;;;5052856;28;20448;-71
2021/11/29 05:41:09;;;;;;;17.00;8.70;;;3.30;99.90;;;;;;5052561;28;20470;-72
2021/11/29 05:43:35;;;;;;;16.03;9.60;;;3.30;99.90;;;;;;5055060;28;20501;-71
2021/11/29 05:46:01;;;;;;;22.90;11.80;;;3.30;99.90;;;;;;5035779;28;20216;-71
2021/11/29 05:48:29;;;;;;;35.17;15.17;;;3.20;99.90;;;;;;5050198;28;20216;-71
2021/11/29 05:50:55;;;;;;;53.23;25.77;;;3.30;99.90;;;;;;5052520;28;20293;-70
2021/11/29 05:53:21;;;;;;;33.80;18.27;;;3.30;99.90;;;;;;5044253;28;20486;-71
2021/11/29 05:55:47;;;;;;;36.10;18.60;;;3.30;99.90;;;;;;5042898;28;20494;-69
2021/11/29 05:58:13;;;;;;;46.43;24.07;;;3.30;99.90;;;;;;5051826;28;20216;-71
2021/11/29 06:00:39;;;;;;;26.60;13.47;;;3.30;99.90;;;;;;5046483;28;20223;-72
2021/11/29 06:03:05;;;;;;;26.70;13.73;;;3.30;99.90;;;;;;5045201;28;20295;-73
2021/11/29 06:05:31;;;;;;;25.03;11.40;;;3.30;99.90;;;;;;5047849;28;20526;-72
2021/11/29 06:07:57;;;;;;;21.27;11.43;;;3.30;99.90;;;;;;5052266;28;20356;-72
2021/11/29 06:10:23;;;;;;;10.67;7.10;;;3.30;99.90;;;;;;5034136;28;21017;-70
2021/11/29 06:12:48;;;;;;;12.27;7.63;;;3.30;99.90;;;;;;5032275;28;20695;-71
2021/11/29 06:15:15;;;;;;;11.00;6.50;;;3.20;99.90;;;;;;5054783;28;20303;-71
2021/11/29 06:17:42;;;;;;;6.83;4.03;;;3.20;99.90;;;;;;5050013;28;20318;-69
2021/11/29 06:20:09;;;;;;;7.13;4.00;;;3.20;99.90;;;;;;5039307;28;20455;-70
2021/11/29 06:22:35;;;;;;;5.60;3.40;;;3.20;99.90;;;;;;5035329;28;20471;-72
2021/11/29 06:25:01;;;;;;;4.20;2.63;;;3.10;99.90;;;;;;5044106;28;20461;-71
2021/11/29 06:27:27;;;;;;;7.47;3.90;;;3.10;99.90;;;;;;5046159;28;20435;-71
2021/11/29 06:29:52;;;;;;;5.07;3.57;;;3.10;99.90;;;;;;5048752;28;20208;-71
2021/11/29 06:32:18;;;;;;;5.43;3.83;;;3.00;99.90;;;;;;5049156;28;20236;-71
2021/11/29 06:34:45;;;;;;;8.20;4.73;;;3.00;99.90;;;;;;5050788;28;20269;-72
2021/11/29 06:37:11;;;;;;;8.93;5.07;;;3.00;99.90;;;;;;5051003;28;20207;-71
2021/11/29 06:39:38;;;;;;;8.70;3.93;;;3.00;99.90;;;;;;5031863;28;21125;-71
2021/11/29 06:42:05;;;;;;;3.50;2.50;;;2.90;99.90;;;;;;5032590;28;20474;-72
2021/11/29 06:44:31;;;;;;;4.93;3.40;;;2.90;99.90;;;;;;5034534;28;20454;-72
2021/11/29 06:46:57;;;;;;;5.57;2.50;;;2.90;99.90;;;;;;5051171;28;20516;-72
2021/11/29 06:49:23;;;;;;;4.80;2.90;;;2.90;99.90;;;;;;5050421;28;20514;-71
2021/11/29 06:51:49;;;;;;;6.90;2.20;;;2.80;99.90;;;;;;5052099;28;20592;-71
2021/11/29 06:54:15;;;;;;;5.37;2.50;;;2.90;99.90;;;;;;5034103;28;20230;-70
2021/11/29 06:56:41;;;;;;;7.40;3.77;;;2.80;99.90;;;;;;5033579;28;20492;-71
2021/11/29 06:59:08;;;;;;;10.97;3.47;;;2.80;99.90;;;;;;5049145;28;20462;-71
2021/11/29 07:01:34;;;;;;;2.73;2.47;;;2.70;99.90;;;;;;5033568;28;20228;-71
2021/11/29 07:04:00;;;;;;;5.27;2.53;;;2.70;99.90;;;;;;5029668;28;20463;-71
2021/11/29 07:06:26;;;;;;;5.00;3.30;;;2.70;99.90;;;;;;5032423;28;20254;-72
2021/11/29 07:08:53;;;;;;;5.20;3.43;;;2.70;99.90;;;;;;5050252;28;20478;-70
2021/11/29 07:11:19;;;;;;;3.57;2.50;;;2.70;99.90;;;;;;5031865;28;20230;-71
2021/11/29 07:13:45;;;;;;;5.07;3.23;;;2.60;99.90;;;;;;5032909;28;20455;-71
2021/11/29 07:16:11;;;;;;;6.33;2.97;;;2.60;99.90;;;;;;5032570;28;20457;-71
2021/11/29 07:18:37;;;;;;;4.90;2.90;;;2.60;99.90;;;;;;5032968;28;20451;-70
2021/11/29 07:21:04;;;;;;;7.73;3.40;;;2.60;99.90;;;;;;5032902;28;20527;-71
2021/11/29 07:23:30;;;;;;;7.87;2.77;;;2.60;99.90;;;;;;5049445;28;20223;-71
2021/11/29 07:25:56;;;;;;;8.07;3.07;;;2.60;99.90;;;;;;5032060;28;20454;-71
2021/11/29 07:28:22;;;;;;;3.90;2.80;;;2.60;99.90;;;;;;5032253;28;20507;-72
2021/11/29 07:30:48;;;;;;;5.33;3.70;;;2.60;99.90;;;;;;5031814;28;20463;-71
2021/11/29 07:33:14;;;;;;;6.50;3.00;;;2.60;99.90;;;;;;5048069;28;20215;-71
2021/11/29 07:35:40;;;;;;;4.70;2.37;;;2.60;99.90;;;;;;5050840;28;20227;-72
2021/11/29 07:38:06;;;;;;;5.10;2.87;;;2.50;99.90;;;;;;5048731;28;20447;-70
2021/11/29 07:40:33;;;;;;;8.37;4.07;;;2.50;99.90;;;;;;5030222;28;20469;-71
2021/11/29 07:43:06;;;;;;;3.40;2.67;;;2.50;99.90;;;;;;5033847;28;20223;-72
2021/11/29 07:45:32;;;;;;;5.90;3.73;;;2.40;99.90;;;;;;5048856;28;20459;-71
2021/11/29 07:47:58;;;;;;;12.73;4.17;;;2.40;99.90;;;;;;5032630;28;20546;-70
2021/11/29 07:50:24;;;;;;;9.03;3.30;;;2.40;99.90;;;;;;5029444;28;20509;-71
2021/11/29 07:52:51;;;;;;;5.00;2.50;;;2.40;99.90;;;;;;5046859;28;20223;-71
2021/11/29 07:55:22;;;;;;;10.13;3.10;;;2.40;99.90;;;;;;5046798;28;20512;-69
2021/11/29 07:57:48;;;;;;;6.20;2.93;;;2.40;99.90;;;;;;5031392;28;20453;-73
2021/11/29 08:00:19;;;;;;;5.20;3.60;;;2.50;99.90;;;;;;5045616;28;20489;-71
2021/11/29 08:02:46;;;;;;;5.67;2.90;;;2.50;99.90;;;;;;5048377;28;20451;-71
2021/11/29 08:05:12;;;;;;;5.40;3.87;;;2.40;99.90;;;;;;5045456;28;20474;-73
2021/11/29 08:07:38;;;;;;;6.03;3.20;;;2.40;99.90;;;;;;5030345;28;20977;-71
2021/11/29 08:10:04;;;;;;;4.73;3.10;;;2.40;99.90;;;;;;5045299;28;20580;-71
2021/11/29 08:12:30;;;;;;;4.70;3.07;;;2.40;99.90;;;;;;5028776;28;20212;-73
2021/11/29 08:14:56;;;;;;;8.60;3.40;;;2.30;99.90;;;;;;5041709;28;20452;-71
2021/11/29 08:17:22;;;;;;;5.47;3.80;;;2.20;99.90;;;;;;5024846;28;20289;-71
2021/11/29 08:19:48;;;;;;;8.00;4.10;;;2.20;99.90;;;;;;5029584;28;20584;-72
2021/11/29 08:22:14;;;;;;;5.60;2.90;;;2.10;99.90;;;;;;5029407;28;20561;-72
2021/11/29 08:24:40;;;;;;;7.83;4.40;;;2.10;99.90;;;;;;5029666;28;20228;-70
2021/11/29 08:27:06;;;;;;;3.80;3.00;;;2.10;99.90;;;;;;5025524;28;20220;-71
2021/11/29 08:29:32;;;;;;;7.97;4.10;;;2.10;99.90;;;;;;5026581;28;20482;-72
2021/11/29 08:31:59;;;;;;;10.23;3.33;;;2.00;99.90;;;;;;5028766;28;20496;-70
2021/11/29 08:34:25;;;;;;;5.00;3.40;;;2.00;99.90;;;;;;5045837;28;20458;-72
2021/11/29 08:36:51;;;;;;;5.37;3.43;;;2.00;99.90;;;;;;5047379;28;20508;-71
2021/11/29 08:39:17;;;;;;;6.13;2.97;;;1.90;99.90;;;;;;5030782;28;20465;-72
2021/11/29 08:41:43;;;;;;;5.87;3.60;;;1.90;99.90;;;;;;5040098;28;20242;-72
2021/11/29 08:44:09;;;;;;;5.77;3.00;;;1.90;99.90;;;;;;5048290;28;20226;-72
2021/11/29 08:46:35;;;;;;;7.43;3.70;;;1.90;99.90;;;;;;5042983;28;20461;-72
2021/11/29 08:49:01;;;;;;;5.77;3.50;;;1.90;99.90;;;;;;5027059;28;20307;-71
2021/11/29 08:51:27;;;;;;;5.87;3.40;;;1.90;99.90;;;;;;5045407;28;20220;-71
2021/11/29 08:53:53;;;;;;;7.93;3.87;;;1.90;99.90;;;;;;5044609;28;20511;-71
2021/11/29 08:56:19;;;;;;;7.23;3.37;;;1.90;99.90;;;;;;5025425;28;20228;-72
2021/11/29 08:58:45;;;;;;;5.63;3.00;;;1.90;99.90;;;;;;5045749;28;20462;-72
2021/11/29 09:01:11;;;;;;;5.67;3.70;;;1.90;99.90;;;;;;5027239;28;20342;-71
2021/11/29 09:03:38;;;;;;;5.00;3.90;;;1.90;99.90;;;;;;5027269;28;20688;-70
2021/11/29 09:06:04;;;;;;;3.83;2.60;;;1.90;99.90;;;;;;5042470;28;20474;-72
2021/11/29 09:08:31;;;;;;;8.70;3.63;;;1.90;99.90;;;;;;5045537;28;20520;-72
2021/11/29 09:10:59;;;;;;;7.33;4.27;;;1.90;99.90;;;;;;5024824;28;20467;-71
2021/11/29 09:13:30;;;;;;;7.27;3.67;;;1.90;99.90;;;;;;5041536;28;20450;-71
2021/11/29 09:16:07;;;;;;;11.07;4.63;;;1.90;99.90;;;;;;5045479;28;20969;-72
2021/11/29 09:18:34;;;;;;;6.60;3.93;;;1.90;99.90;;;;;;5028118;28;20450;-72
2021/11/29 09:21:00;;;;;;;5.77;3.20;;;1.90;99.90;;;;;;5044809;28;20532;-70
2021/11/29 09:23:28;;;;;;;4.53;3.33;;;1.90;99.90;;;;;;5012937;28;20520;-72
2021/11/29 09:25:54;;;;;;;4.60;3.30;;;1.90;99.90;;;;;;5047946;28;20459;-72
2021/11/29 09:28:20;;;;;;;5.37;2.67;;;1.90;99.90;;;;;;5046872;28;20538;-72
2021/11/29 09:30:47;;;;;;;7.23;4.43;;;2.00;99.90;;;;;;5029456;28;20533;-72
2021/11/29 09:33:14;;;;;;;9.30;3.83;;;2.00;99.90;;;;;;5045875;28;20457;-72
2021/11/29 09:35:40;;;;;;;8.77;4.20;;;2.00;99.90;;;;;;5045818;28;20456;-72
2021/11/29 09:38:07;;;;;;;4.33;3.37;;;2.00;99.90;;;;;;5046696;28;20490;-71
2021/11/29 09:40:36;;;;;;;5.70;3.60;;;2.00;99.90;;;;;;5030904;28;20465;-72
2021/11/29 09:43:11;;;;;;;6.80;4.20;;;2.00;99.90;;;;;;5054937;28;20511;-72
2021/11/29 09:45:39;;;;;;;6.00;3.63;;;2.00;99.90;;;;;;5048934;28;20453;-71
2021/11/29 09:48:07;;;;;;;4.13;2.77;;;2.00;99.90;;;;;;5029593;28;20532;-72
2021/11/29 09:50:35;;;;;;;3.57;2.93;;;2.10;99.90;;;;;;5029623;28;20453;-72
2021/11/29 09:53:01;;;;;;;5.27;3.37;;;2.10;99.90;;;;;;5047030;28;20447;-69
2021/11/29 09:55:28;;;;;;;9.80;3.57;;;2.10;99.90;;;;;;5027936;28;20443;-72
2021/11/29 09:57:57;;;;;;;6.53;3.80;;;2.20;99.90;;;;;;5029023;28;20226;-71
2021/11/29 10:00:30;;;;;;;5.30;3.40;;;2.20;99.90;;;;;;5029498;28;20462;-72
2021/11/29 10:02:57;;;;;;;4.17;2.60;;;2.20;99.90;;;;;;5027353;28;20467;-72
2021/11/29 10:05:24;;;;;;;8.30;3.90;;;2.20;99.90;;;;;;5043215;28;20529;-71
2021/11/29 10:07:52;;;;;;;5.40;3.60;;;2.20;99.90;;;;;;5026930;28;20452;-72
2021/11/29 10:10:19;;;;;;;6.13;4.07;;;2.20;99.90;;;;;;5019725;28;20982;-72
2021/11/29 10:12:48;;;;;;;5.80;3.37;;;2.30;99.90;;;;;;5040893;28;20516;-73
2021/11/29 10:15:22;;;;;;;5.63;3.80;;;2.30;99.90;;;;;;5025683;28;20536;-73
2021/11/29 10:17:52;;;;;;;4.50;3.40;;;2.30;99.90;;;;;;5054680;28;20838;-73
2021/11/29 10:20:19;;;;;;;7.53;3.77;;;2.40;99.90;;;;;;5013016;28;20454;-72
2021/11/29 10:22:59;;;;;;;5.30;3.30;;;2.40;99.90;;;;;;5046270;28;20461;-73
2021/11/29 10:25:25;;;;;;;6.40;3.60;;;2.40;99.90;;;;;;5033148;28;20477;-72
2021/11/29 10:27:51;;;;;;;4.67;2.70;;;2.50;99.90;;;;;;5048936;28;20450;-72
2021/11/29 10:30:20;;;;;;;5.00;3.33;;;2.50;99.90;;;;;;5047552;28;20538;-72
2021/11/29 10:32:49;;;;;;;5.73;3.13;;;2.50;99.90;;;;;;5027769;28;20525;-72
2021/11/29 10:35:39;;;;;;;4.60;3.23;;;2.50;99.90;;;;;;5031217;28;20865;-72
2021/11/29 10:38:05;;;;;;;7.77;2.80;;;2.50;99.90;;;;;;5049056;28;20499;-72
2021/11/29 10:40:32;;;;;;;5.90;3.23;;;2.50;99.90;;;;;;5029139;28;20551;-73
2021/11/29 10:43:04;;;;;;;9.00;3.43;;;2.60;99.90;;;;;;5042042;28;20217;-72
2021/11/29 10:45:31;;;;;;;5.73;3.27;;;2.60;99.90;;;;;;5022608;28;20505;-72
2021/11/29 10:47:56;;;;;;;5.70;2.80;;;2.60;99.90;;;;;;5048091;28;20462;-71
2021/11/29 10:50:28;;;;;;;5.20;3.40;;;2.60;99.90;;;;;;5030737;28;20468;-71
2021/11/29 10:53:11;;;;;;;4.73;2.93;;;2.70;99.90;;;;;;5047172;28;20215;-72
2021/11/29 10:55:56;;;;;;;5.37;3.83;;;2.70;99.90;;;;;;5030682;28;20461;-72
2021/11/29 10:58:25;;;;;;;7.80;2.60;;;2.70;99.90;;;;;;5044170;28;20450;-72
2021/11/29 11:00:51;;;;;;;3.37;2.50;;;2.70;99.90;;;;;;5031535;28;20569;-72
2021/11/29 11:03:17;;;;;;;4.47;2.70;;;2.70;99.90;;;;;;5046393;28;20545;-70
2021/11/29 11:06:05;;;;;;;5.20;3.30;;;2.70;99.90;;;;;;5029158;28;20459;-72
2021/11/29 11:08:35;;;;;;;5.00;3.10;;;2.80;99.90;;;;;;5028488;28;20207;-71
2021/11/29 11:11:21;;;;;;;6.93;3.27;;;2.80;99.90;;;;;;5029129;28;20483;-70
2021/11/29 11:14:20;;;;;;;5.57;2.60;;;2.90;99.90;;;;;;5027159;28;20439;-71
2021/11/29 11:16:54;;;;;;;3.47;2.40;;;2.90;99.90;;;;;;5039234;28;20438;-71
2021/11/29 11:19:31;;;;;;;4.00;2.30;;;2.90;99.90;;;;;;5039474;28;21009;-72
2021/11/29 11:22:00;;;;;;;6.17;2.73;;;3.00;99.90;;;;;;5030946;28;20470;-70
2021/11/29 11:24:29;;;;;;;3.70;3.00;;;3.00;99.90;;;;;;5030383;28;20507;-74
2021/11/29 11:26:57;;;;;;;4.63;2.63;;;3.00;99.90;;;;;;5047539;28;20454;-72
2021/11/29 11:29:33;;;;;;;5.17;3.47;;;3.00;99.90;;;;;;5027242;28;20443;-73
2021/11/29 11:32:10;;;;;;;3.93;2.37;;;3.00;99.90;;;;;;5044554;28;20454;-70
2021/11/29 11:34:36;;;;;;;6.57;3.23;;;3.00;99.90;;;;;;5043751;28;20465;-71
2021/11/29 11:37:03;;;;;;;7.70;3.13;;;3.10;99.90;;;;;;5042806;28;20458;-72
2021/11/29 11:39:30;;;;;;;9.13;3.70;;;3.10;99.90;;;;;;5047641;28;20462;-73
2021/11/29 11:41:56;;;;;;;14.83;3.43;;;3.10;99.90;;;;;;5030902;28;20490;-71
2021/11/29 11:44:23;;;;;;;3.20;2.60;;;3.20;99.90;;;;;;5046693;28;20434;-72
2021/11/29 11:46:50;;;;;;;6.27;3.40;;;3.20;99.90;;;;;;5046896;28;20463;-72
2021/11/29 11:49:16;;;;;;;4.27;2.90;;;3.20;99.90;;;;;;5029982;28;20513;-72
2021/11/29 11:51:42;;;;;;;5.13;3.30;;;3.30;99.90;;;;;;5040359;28;20519;-72
2021/11/29 11:54:08;;;;;;;5.93;3.57;;;3.30;99.90;;;;;;5029062;28;21041;-72
2021/11/29 11:56:34;;;;;;;9.93;3.70;;;3.30;99.90;;;;;;5030452;28;20450;-72
2021/11/29 11:59:12;;;;;;;5.40;3.63;;;3.30;99.90;;;;;;5047417;28;20473;-72
2021/11/29 12:01:43;;;;;;;10.27;4.00;;;3.30;99.90;;;;;;5045682;28;20251;-72
2021/11/29 12:04:11;;;;;;;7.13;3.40;;;3.40;99.90;;;;;;5046459;28;20541;-71
2021/11/29 12:06:40;;;;;;;5.97;3.10;;;3.40;99.90;;;;;;5046839;28;20450;-72
2021/11/29 12:09:10;;;;;;;5.70;3.27;;;3.40;99.90;;;;;;5031928;28;20471;-72
2021/11/29 12:11:45;;;;;;;6.00;3.90;;;3.40;99.90;;;;;;5012981;28;20447;-71
2021/11/29 12:14:23;;;;;;;4.67;2.50;;;3.40;99.90;;;;;;5031120;28;20518;-72
2021/11/29 12:16:54;;;;;;;5.40;3.27;;;3.40;99.90;;;;;;5029431;28;20482;-73
2021/11/29 12:19:32;;;;;;;4.00;2.50;;;3.40;99.90;;;;;;5044779;28;20469;-71
2021/11/29 12:22:01;;;;;;;2.80;2.20;;;3.40;99.90;;;;;;5047042;28;20459;-70
2021/11/29 12:24:37;;;;;;;4.80;2.70;;;3.40;99.90;;;;;;5047023;28;20446;-73
2021/11/29 12:27:06;;;;;;;4.13;2.73;;;3.40;99.90;;;;;;5028717;28;20478;-74
2021/11/29 12:29:31;;;;;;;6.33;2.23;;;3.40;99.90;;;;;;5044842;28;20466;-72
2021/11/29 12:32:06;;;;;;;3.87;2.63;;;3.40;99.90;;;;;;5047346;28;20493;-73
2021/11/29 12:35:08;;;;;;;6.80;3.00;;;3.40;99.90;;;;;;5046285;28;20219;-71
2021/11/29 12:37:43;;;;;;;3.00;2.50;;;3.50;99.90;;;;;;5028444;28;20483;-73
2021/11/29 12:40:14;;;;;;;3.23;2.40;;;3.50;99.90;;;;;;5048082;28;20458;-73
2021/11/29 12:42:40;;;;;;;2.20;2.00;;;3.50;99.90;;;;;;5052510;28;20460;-73
2021/11/29 12:45:08;;;;;;;3.50;1.73;;;3.50;99.90;;;;;;5067583;28;20457;-73
2021/11/29 12:47:52;;;;;;;5.17;2.30;;;3.50;99.90;;;;;;5039715;28;20612;-73
2021/11/29 12:50:52;;;;;;;4.07;2.80;;;3.50;99.90;;;;;;5044293;28;20472;-73
2021/11/29 12:53:19;;;;;;;5.30;2.70;;;3.50;99.90;;;;;;5037339;28;20450;-73
2021/11/29 12:56:10;;;;;;;4.10;2.37;;;3.50;99.90;;;;;;5046097;28;20457;-73